sensor_id;sensor_type;location;lat;lon;timestamp;P1;durP1;ratioP1;P2;durP2;ratioP2
18610;SDS011;9435;52.122;5.502;2022-08-21T00:02:13;8.77;;;4.68;;
18610;SDS011;9435;52.122;5.502;2022-08-21T00:04:41;8.18;;;4.85;;
18610;SDS011;9435;52.122;5.502;2022-08-21T00:07:09;7.18;;;4.57;;
18610;SDS011;9435;52.122;5.502;2022-08-21T00:09:36;6.95;;;4.50;;
18610;SDS011;9435;52.122;5.502;2022-08-21T00:12:04;6.75;;;4.53;;
18610;SDS011;9435;52.122;5.502;2022-08-21T00:14:31;6.38;;;4.85;;
18610;SDS011;9435;52.122;5.502;2022-08-21T00:16:59;8.43;;;4.72;;
18610;SDS011;9435;52.122;5.502;2022-08-21T00:19:27;9.38;;;4.70;;
18610;SDS011;9435;52.122;5.502;2022-08-21T00:21:54;8.02;;;4.78;;
18610;SDS011;9435;52.122;5.502;2022-08-21T00:24:23;9.15;;;4.57;;
18610;SDS011;9435;52.122;5.502;2022-08-21T00:26:50;8.73;;;5.00;;
18610;SDS011;9435;52.122;5.502;2022-08-21T00:29:18;9.10;;;4.78;;
18610;SDS011;9435;52.122;5.502;2022-08-21T00:31:45;7.82;;;4.80;;
18610;SDS011;9435;52.122;5.502;2022-08-21T00:34:12;9.93;;;5.38;;
18610;SDS011;9435;52.122;5.502;2022-08-21T00:36:39;7.60;;;4.88;;
18610;SDS011;9435;52.122;5.502;2022-08-21T00:39:07;7.40;;;4.43;;
18610;SDS011;9435;52.122;5.502;2022-08-21T00:41:36;7.45;;;4.65;;
18610;SDS011;9435;52.122;5.502;2022-08-21T00:44:04;5.50;;;4.30;;
18610;SDS011;9435;52.122;5.502;2022-08-21T00:46:32;10.30;;;4.97;;
18610;SDS011;9435;52.122;5.502;2022-08-21T00:48:59;9.30;;;4.82;;
18610;SDS011;9435;52.122;5.502;2022-08-21T00:51:27;9.23;;;4.97;;
18610;SDS011;9435;52.122;5.502;2022-08-21T00:53:59;7.30;;;5.18;;
18610;SDS011;9435;52.122;5.502;2022-08-21T00:56:27;7.55;;;4.65;;
18610;SDS011;9435;52.122;5.502;2022-08-21T00:58:56;9.48;;;4.68;;
18610;SDS011;9435;52.122;5.502;2022-08-21T01:01:25;6.43;;;4.43;;
18610;SDS011;9435;52.122;5.502;2022-08-21T01:03:52;8.32;;;5.15;;
18610;SDS011;9435;52.122;5.502;2022-08-21T01:06:19;10.35;;;5.30;;
18610;SDS011;9435;52.122;5.502;2022-08-21T01:08:47;6.68;;;4.80;;
18610;SDS011;9435;52.122;5.502;2022-08-21T01:11:14;7.28;;;4.60;;
18610;SDS011;9435;52.122;5.502;2022-08-21T01:13:42;7.90;;;4.70;;
18610;SDS011;9435;52.122;5.502;2022-08-21T01:16:13;8.43;;;4.80;;
18610;SDS011;9435;52.122;5.502;2022-08-21T01:18:44;7.05;;;4.75;;
18610;SDS011;9435;52.122;5.502;2022-08-21T01:21:14;8.18;;;5.38;;
18610;SDS011;9435;52.122;5.502;2022-08-21T01:23:45;9.75;;;4.90;;
18610;SDS011;9435;52.122;5.502;2022-08-21T01:26:15;8.35;;;4.97;;
18610;SDS011;9435;52.122;5.502;2022-08-21T01:28:46;8.95;;;4.72;;
18610;SDS011;9435;52.122;5.502;2022-08-21T01:31:18;8.52;;;5.15;;
18610;SDS011;9435;52.122;5.502;2022-08-21T01:33:48;8.90;;;5.00;;
18610;SDS011;9435;52.122;5.502;2022-08-21T01:36:16;8.07;;;4.78;;
18610;SDS011;9435;52.122;5.502;2022-08-21T01:38:44;7.85;;;4.88;;
18610;SDS011;9435;52.122;5.502;2022-08-21T01:41:12;7.75;;;5.07;;
18610;SDS011;9435;52.122;5.502;2022-08-21T01:43:39;9.25;;;4.50;;
18610;SDS011;9435;52.122;5.502;2022-08-21T01:46:06;10.00;;;4.88;;
18610;SDS011;9435;52.122;5.502;2022-08-21T01:48:33;7.20;;;4.75;;
18610;SDS011;9435;52.122;5.502;2022-08-21T01:51:01;8.75;;;5.13;;
18610;SDS011;9435;52.122;5.502;2022-08-21T01:53:29;8.80;;;5.30;;
18610;SDS011;9435;52.122;5.502;2022-08-21T01:55:56;9.57;;;4.95;;
18610;SDS011;9435;52.122;5.502;2022-08-21T01:58:23;8.88;;;5.10;;
18610;SDS011;9435;52.122;5.502;2022-08-21T02:00:50;8.15;;;4.60;;
18610;SDS011;9435;52.122;5.502;2022-08-21T02:03:17;9.18;;;4.68;;
18610;SDS011;9435;52.122;5.502;2022-08-21T02:05:44;7.68;;;4.80;;
18610;SDS011;9435;52.122;5.502;2022-08-21T02:08:11;8.82;;;5.20;;
18610;SDS011;9435;52.122;5.502;2022-08-21T02:10:40;6.28;;;4.80;;
18610;SDS011;9435;52.122;5.502;2022-08-21T02:13:07;7.53;;;4.97;;
18610;SDS011;9435;52.122;5.502;2022-08-21T02:15:34;8.75;;;4.65;;
18610;SDS011;9435;52.122;5.502;2022-08-21T02:18:02;7.88;;;5.05;;
18610;SDS011;9435;52.122;5.502;2022-08-21T02:20:32;8.40;;;5.05;;
18610;SDS011;9435;52.122;5.502;2022-08-21T02:23:01;11.27;;;5.70;;
18610;SDS011;9435;52.122;5.502;2022-08-21T02:25:29;8.23;;;5.47;;
18610;SDS011;9435;52.122;5.502;2022-08-21T02:27:59;10.10;;;5.30;;
18610;SDS011;9435;52.122;5.502;2022-08-21T02:30:30;9.27;;;4.68;;
18610;SDS011;9435;52.122;5.502;2022-08-21T02:33:00;7.82;;;5.03;;
18610;SDS011;9435;52.122;5.502;2022-08-21T02:35:27;8.60;;;5.32;;
18610;SDS011;9435;52.122;5.502;2022-08-21T02:37:56;8.77;;;5.30;;
18610;SDS011;9435;52.122;5.502;2022-08-21T02:40:25;8.25;;;5.32;;
18610;SDS011;9435;52.122;5.502;2022-08-21T02:42:53;11.73;;;5.50;;
18610;SDS011;9435;52.122;5.502;2022-08-21T02:45:22;8.75;;;5.35;;
18610;SDS011;9435;52.122;5.502;2022-08-21T02:47:49;9.52;;;5.50;;
18610;SDS011;9435;52.122;5.502;2022-08-21T02:50:18;9.25;;;5.70;;
18610;SDS011;9435;52.122;5.502;2022-08-21T02:52:47;10.32;;;5.60;;
18610;SDS011;9435;52.122;5.502;2022-08-21T02:55:16;8.90;;;5.57;;
18610;SDS011;9435;52.122;5.502;2022-08-21T02:57:43;8.77;;;5.50;;
18610;SDS011;9435;52.122;5.502;2022-08-21T03:00:10;8.52;;;5.13;;
18610;SDS011;9435;52.122;5.502;2022-08-21T03:02:40;11.27;;;5.55;;
18610;SDS011;9435;52.122;5.502;2022-08-21T03:05:08;12.10;;;6.20;;
18610;SDS011;9435;52.122;5.502;2022-08-21T03:07:36;8.57;;;5.50;;
18610;SDS011;9435;52.122;5.502;2022-08-21T03:10:04;11.07;;;5.80;;
18610;SDS011;9435;52.122;5.502;2022-08-21T03:12:32;10.88;;;5.60;;
18610;SDS011;9435;52.122;5.502;2022-08-21T03:15:00;7.50;;;5.40;;
18610;SDS011;9435;52.122;5.502;2022-08-21T03:17:27;8.32;;;5.35;;
18610;SDS011;9435;52.122;5.502;2022-08-21T03:19:56;10.48;;;6.38;;
18610;SDS011;9435;52.122;5.502;2022-08-21T03:22:23;9.60;;;6.00;;
18610;SDS011;9435;52.122;5.502;2022-08-21T03:24:50;12.90;;;6.75;;
18610;SDS011;9435;52.122;5.502;2022-08-21T03:27:17;11.15;;;6.00;;
18610;SDS011;9435;52.122;5.502;2022-08-21T03:29:44;11.98;;;6.28;;
18610;SDS011;9435;52.122;5.502;2022-08-21T03:32:11;9.70;;;5.88;;
18610;SDS011;9435;52.122;5.502;2022-08-21T03:34:38;8.73;;;6.10;;
18610;SDS011;9435;52.122;5.502;2022-08-21T03:37:07;11.23;;;6.55;;
18610;SDS011;9435;52.122;5.502;2022-08-21T03:39:34;10.80;;;6.20;;
18610;SDS011;9435;52.122;5.502;2022-08-21T03:42:02;13.35;;;6.47;;
18610;SDS011;9435;52.122;5.502;2022-08-21T03:44:30;10.85;;;6.38;;
18610;SDS011;9435;52.122;5.502;2022-08-21T03:46:57;11.20;;;6.90;;
18610;SDS011;9435;52.122;5.502;2022-08-21T03:49:24;10.15;;;6.60;;
18610;SDS011;9435;52.122;5.502;2022-08-21T03:51:52;11.82;;;6.43;;
18610;SDS011;9435;52.122;5.502;2022-08-21T03:54:20;9.40;;;6.10;;
18610;SDS011;9435;52.122;5.502;2022-08-21T03:56:47;13.52;;;6.20;;
18610;SDS011;9435;52.122;5.502;2022-08-21T03:59:14;10.35;;;6.40;;
18610;SDS011;9435;52.122;5.502;2022-08-21T04:01:50;10.95;;;5.90;;
18610;SDS011;9435;52.122;5.502;2022-08-21T04:04:18;10.85;;;5.90;;
18610;SDS011;9435;52.122;5.502;2022-08-21T04:06:45;9.32;;;5.70;;
18610;SDS011;9435;52.122;5.502;2022-08-21T04:09:12;9.73;;;5.35;;
18610;SDS011;9435;52.122;5.502;2022-08-21T04:11:40;8.80;;;5.45;;
18610;SDS011;9435;52.122;5.502;2022-08-21T04:14:07;8.70;;;5.35;;
18610;SDS011;9435;52.122;5.502;2022-08-21T04:16:34;7.93;;;5.10;;
18610;SDS011;9435;52.122;5.502;2022-08-21T04:19:01;8.60;;;5.07;;
18610;SDS011;9435;52.122;5.502;2022-08-21T04:21:28;8.30;;;5.10;;
18610;SDS011;9435;52.122;5.502;2022-08-21T04:23:56;8.02;;;5.07;;
18610;SDS011;9435;52.122;5.502;2022-08-21T04:26:23;8.45;;;5.18;;
18610;SDS011;9435;52.122;5.502;2022-08-21T04:28:52;12.80;;;5.45;;
18610;SDS011;9435;52.122;5.502;2022-08-21T04:31:21;8.70;;;5.55;;
18610;SDS011;9435;52.122;5.502;2022-08-21T04:33:47;9.27;;;6.13;;
18610;SDS011;9435;52.122;5.502;2022-08-21T04:36:15;11.52;;;5.95;;
18610;SDS011;9435;52.122;5.502;2022-08-21T04:38:43;10.13;;;6.10;;
18610;SDS011;9435;52.122;5.502;2022-08-21T04:41:10;8.77;;;5.88;;
18610;SDS011;9435;52.122;5.502;2022-08-21T04:43:37;12.50;;;6.47;;
18610;SDS011;9435;52.122;5.502;2022-08-21T04:46:05;11.60;;;6.60;;
18610;SDS011;9435;52.122;5.502;2022-08-21T04:48:33;11.93;;;6.68;;
18610;SDS011;9435;52.122;5.502;2022-08-21T04:51:00;10.55;;;6.45;;
18610;SDS011;9435;52.122;5.502;2022-08-21T04:53:33;11.68;;;7.10;;
18610;SDS011;9435;52.122;5.502;2022-08-21T04:56:04;11.38;;;6.32;;
18610;SDS011;9435;52.122;5.502;2022-08-21T04:58:34;12.73;;;6.93;;
18610;SDS011;9435;52.122;5.502;2022-08-21T05:01:02;12.23;;;6.82;;
18610;SDS011;9435;52.122;5.502;2022-08-21T05:03:33;13.48;;;7.20;;
18610;SDS011;9435;52.122;5.502;2022-08-21T05:06:02;11.68;;;6.65;;
18610;SDS011;9435;52.122;5.502;2022-08-21T05:08:31;12.52;;;6.68;;
18610;SDS011;9435;52.122;5.502;2022-08-21T05:10:58;13.45;;;7.18;;
18610;SDS011;9435;52.122;5.502;2022-08-21T05:13:26;10.13;;;6.90;;
18610;SDS011;9435;52.122;5.502;2022-08-21T05:15:53;12.73;;;7.80;;
18610;SDS011;9435;52.122;5.502;2022-08-21T05:18:20;14.55;;;8.10;;
18610;SDS011;9435;52.122;5.502;2022-08-21T05:20:49;13.43;;;7.57;;
18610;SDS011;9435;52.122;5.502;2022-08-21T05:23:16;12.18;;;7.60;;
18610;SDS011;9435;52.122;5.502;2022-08-21T05:25:43;11.77;;;7.60;;
18610;SDS011;9435;52.122;5.502;2022-08-21T05:28:10;13.48;;;7.35;;
18610;SDS011;9435;52.122;5.502;2022-08-21T05:30:38;12.95;;;7.60;;
18610;SDS011;9435;52.122;5.502;2022-08-21T05:33:06;13.48;;;7.80;;
18610;SDS011;9435;52.122;5.502;2022-08-21T05:35:33;13.52;;;7.65;;
18610;SDS011;9435;52.122;5.502;2022-08-21T05:38:02;13.20;;;8.10;;
18610;SDS011;9435;52.122;5.502;2022-08-21T05:40:30;16.73;;;8.32;;
18610;SDS011;9435;52.122;5.502;2022-08-21T05:42:57;14.80;;;8.90;;
18610;SDS011;9435;52.122;5.502;2022-08-21T05:45:25;16.40;;;9.00;;
18610;SDS011;9435;52.122;5.502;2022-08-21T05:47:54;16.02;;;8.82;;
18610;SDS011;9435;52.122;5.502;2022-08-21T05:50:21;19.33;;;9.30;;
18610;SDS011;9435;52.122;5.502;2022-08-21T05:52:48;19.25;;;9.70;;
18610;SDS011;9435;52.122;5.502;2022-08-21T05:55:17;18.83;;;9.95;;
18610;SDS011;9435;52.122;5.502;2022-08-21T05:57:44;18.73;;;10.00;;
18610;SDS011;9435;52.122;5.502;2022-08-21T06:00:11;18.75;;;9.80;;
18610;SDS011;9435;52.122;5.502;2022-08-21T06:02:39;18.52;;;9.57;;
18610;SDS011;9435;52.122;5.502;2022-08-21T06:05:06;16.95;;;9.98;;
18610;SDS011;9435;52.122;5.502;2022-08-21T06:07:33;18.65;;;10.15;;
18610;SDS011;9435;52.122;5.502;2022-08-21T06:10:00;22.73;;;10.73;;
18610;SDS011;9435;52.122;5.502;2022-08-21T06:12:29;22.52;;;10.20;;
18610;SDS011;9435;52.122;5.502;2022-08-21T06:14:56;24.27;;;11.70;;
18610;SDS011;9435;52.122;5.502;2022-08-21T06:17:23;27.30;;;10.98;;
18610;SDS011;9435;52.122;5.502;2022-08-21T06:19:51;20.95;;;10.82;;
18610;SDS011;9435;52.122;5.502;2022-08-21T06:22:18;21.98;;;10.23;;
18610;SDS011;9435;52.122;5.502;2022-08-21T06:24:46;24.58;;;10.50;;
18610;SDS011;9435;52.122;5.502;2022-08-21T06:27:13;23.20;;;10.27;;
18610;SDS011;9435;52.122;5.502;2022-08-21T06:29:41;17.85;;;9.32;;
18610;SDS011;9435;52.122;5.502;2022-08-21T06:32:10;21.13;;;10.23;;
18610;SDS011;9435;52.122;5.502;2022-08-21T06:34:38;24.73;;;9.55;;
18610;SDS011;9435;52.122;5.502;2022-08-21T06:37:06;20.45;;;8.93;;
18610;SDS011;9435;52.122;5.502;2022-08-21T06:39:33;17.75;;;8.57;;
18610;SDS011;9435;52.122;5.502;2022-08-21T06:42:01;18.35;;;7.95;;
18610;SDS011;9435;52.122;5.502;2022-08-21T06:44:28;18.88;;;8.40;;
18610;SDS011;9435;52.122;5.502;2022-08-21T06:46:57;19.58;;;8.57;;
18610;SDS011;9435;52.122;5.502;2022-08-21T06:49:23;19.73;;;7.57;;
18610;SDS011;9435;52.122;5.502;2022-08-21T06:51:50;17.70;;;8.07;;
18610;SDS011;9435;52.122;5.502;2022-08-21T06:54:17;17.92;;;7.95;;
18610;SDS011;9435;52.122;5.502;2022-08-21T06:56:44;13.80;;;7.43;;
18610;SDS011;9435;52.122;5.502;2022-08-21T06:59:11;15.75;;;7.07;;
18610;SDS011;9435;52.122;5.502;2022-08-21T07:01:38;15.15;;;7.15;;
18610;SDS011;9435;52.122;5.502;2022-08-21T07:04:07;15.20;;;6.93;;
18610;SDS011;9435;52.122;5.502;2022-08-21T07:06:34;13.95;;;6.43;;
18610;SDS011;9435;52.122;5.502;2022-08-21T07:09:01;18.63;;;6.97;;
18610;SDS011;9435;52.122;5.502;2022-08-21T07:11:29;13.95;;;6.85;;
18610;SDS011;9435;52.122;5.502;2022-08-21T07:13:56;19.05;;;6.85;;
18610;SDS011;9435;52.122;5.502;2022-08-21T07:16:23;13.05;;;6.40;;
18610;SDS011;9435;52.122;5.502;2022-08-21T07:18:50;14.65;;;6.68;;
18610;SDS011;9435;52.122;5.502;2022-08-21T07:21:19;20.88;;;6.88;;
18610;SDS011;9435;52.122;5.502;2022-08-21T07:23:46;14.40;;;6.20;;
18610;SDS011;9435;52.122;5.502;2022-08-21T07:26:16;14.13;;;6.40;;
18610;SDS011;9435;52.122;5.502;2022-08-21T07:28:45;13.93;;;6.35;;
18610;SDS011;9435;52.122;5.502;2022-08-21T07:31:13;19.58;;;6.80;;
18610;SDS011;9435;52.122;5.502;2022-08-21T07:33:41;14.98;;;5.93;;
18610;SDS011;9435;52.122;5.502;2022-08-21T07:36:09;14.50;;;6.00;;
18610;SDS011;9435;52.122;5.502;2022-08-21T07:38:38;15.50;;;5.93;;
18610;SDS011;9435;52.122;5.502;2022-08-21T07:41:18;13.32;;;5.05;;
18610;SDS011;9435;52.122;5.502;2022-08-21T07:43:47;14.95;;;5.40;;
18610;SDS011;9435;52.122;5.502;2022-08-21T07:46:14;16.58;;;5.43;;
18610;SDS011;9435;52.122;5.502;2022-08-21T07:48:41;18.70;;;6.18;;
18610;SDS011;9435;52.122;5.502;2022-08-21T07:51:09;19.63;;;6.05;;
18610;SDS011;9435;52.122;5.502;2022-08-21T07:53:40;13.85;;;5.55;;
18610;SDS011;9435;52.122;5.502;2022-08-21T07:56:08;14.27;;;5.65;;
18610;SDS011;9435;52.122;5.502;2022-08-21T07:58:36;12.70;;;5.75;;
18610;SDS011;9435;52.122;5.502;2022-08-21T08:01:03;16.35;;;5.50;;
18610;SDS011;9435;52.122;5.502;2022-08-21T08:03:31;13.02;;;5.28;;
18610;SDS011;9435;52.122;5.502;2022-08-21T08:05:58;12.15;;;4.70;;
18610;SDS011;9435;52.122;5.502;2022-08-21T08:08:25;18.60;;;5.78;;
18610;SDS011;9435;52.122;5.502;2022-08-21T08:10:54;15.00;;;5.03;;
18610;SDS011;9435;52.122;5.502;2022-08-21T08:13:24;17.55;;;5.50;;
18610;SDS011;9435;52.122;5.502;2022-08-21T08:15:51;13.23;;;4.82;;
18610;SDS011;9435;52.122;5.502;2022-08-21T08:18:18;13.68;;;5.10;;
18610;SDS011;9435;52.122;5.502;2022-08-21T08:20:45;13.23;;;5.18;;
18610;SDS011;9435;52.122;5.502;2022-08-21T08:23:12;13.52;;;4.80;;
18610;SDS011;9435;52.122;5.502;2022-08-21T08:25:40;10.95;;;4.13;;
18610;SDS011;9435;52.122;5.502;2022-08-21T08:28:09;15.05;;;5.03;;
18610;SDS011;9435;52.122;5.502;2022-08-21T08:30:36;14.88;;;4.93;;
18610;SDS011;9435;52.122;5.502;2022-08-21T08:33:03;14.00;;;4.55;;
18610;SDS011;9435;52.122;5.502;2022-08-21T08:35:30;14.95;;;4.70;;
18610;SDS011;9435;52.122;5.502;2022-08-21T08:37:57;13.23;;;4.30;;
18610;SDS011;9435;52.122;5.502;2022-08-21T08:40:28;16.38;;;4.75;;
18610;SDS011;9435;52.122;5.502;2022-08-21T08:43:00;14.48;;;4.18;;
18610;SDS011;9435;52.122;5.502;2022-08-21T08:45:29;11.70;;;4.22;;
18610;SDS011;9435;52.122;5.502;2022-08-21T08:47:58;14.85;;;4.40;;
18610;SDS011;9435;52.122;5.502;2022-08-21T08:50:33;12.05;;;4.00;;
18610;SDS011;9435;52.122;5.502;2022-08-21T08:53:06;11.10;;;3.78;;
18610;SDS011;9435;52.122;5.502;2022-08-21T08:55:44;16.35;;;4.20;;
18610;SDS011;9435;52.122;5.502;2022-08-21T08:58:13;13.68;;;3.58;;
18610;SDS011;9435;52.122;5.502;2022-08-21T09:00:47;11.90;;;3.50;;
18610;SDS011;9435;52.122;5.502;2022-08-21T09:03:16;14.27;;;3.97;;
18610;SDS011;9435;52.122;5.502;2022-08-21T09:05:45;11.48;;;4.00;;
18610;SDS011;9435;52.122;5.502;2022-08-21T09:08:26;11.98;;;3.83;;
18610;SDS011;9435;52.122;5.502;2022-08-21T09:11:15;12.18;;;3.10;;
18610;SDS011;9435;52.122;5.502;2022-08-21T09:13:50;13.10;;;3.65;;
18610;SDS011;9435;52.122;5.502;2022-08-21T09:16:29;12.07;;;3.30;;
18610;SDS011;9435;52.122;5.502;2022-08-21T09:19:07;12.73;;;3.33;;
18610;SDS011;9435;52.122;5.502;2022-08-21T09:21:41;9.43;;;3.00;;
18610;SDS011;9435;52.122;5.502;2022-08-21T09:24:22;11.82;;;3.40;;
18610;SDS011;9435;52.122;5.502;2022-08-21T09:26:58;11.52;;;2.70;;
18610;SDS011;9435;52.122;5.502;2022-08-21T09:29:30;10.85;;;2.63;;
18610;SDS011;9435;52.122;5.502;2022-08-21T09:32:01;8.85;;;2.72;;
18610;SDS011;9435;52.122;5.502;2022-08-21T09:34:30;12.95;;;2.97;;
18610;SDS011;9435;52.122;5.502;2022-08-21T09:36:57;12.57;;;2.90;;
18610;SDS011;9435;52.122;5.502;2022-08-21T09:39:27;10.35;;;2.78;;
18610;SDS011;9435;52.122;5.502;2022-08-21T09:41:56;9.13;;;2.50;;
18610;SDS011;9435;52.122;5.502;2022-08-21T09:44:25;10.65;;;2.92;;
18610;SDS011;9435;52.122;5.502;2022-08-21T09:46:53;8.48;;;2.47;;
18610;SDS011;9435;52.122;5.502;2022-08-21T09:49:28;9.25;;;2.38;;
18610;SDS011;9435;52.122;5.502;2022-08-21T09:51:57;9.43;;;2.75;;
18610;SDS011;9435;52.122;5.502;2022-08-21T09:54:26;10.95;;;2.60;;
18610;SDS011;9435;52.122;5.502;2022-08-21T09:56:58;9.00;;;2.20;;
18610;SDS011;9435;52.122;5.502;2022-08-21T09:59:45;9.40;;;2.53;;
18610;SDS011;9435;52.122;5.502;2022-08-21T10:02:21;10.18;;;2.42;;
18610;SDS011;9435;52.122;5.502;2022-08-21T10:04:57;7.68;;;2.08;;
18610;SDS011;9435;52.122;5.502;2022-08-21T10:07:26;9.80;;;2.40;;
18610;SDS011;9435;52.122;5.502;2022-08-21T10:09:58;7.65;;;2.08;;
18610;SDS011;9435;52.122;5.502;2022-08-21T10:12:28;10.25;;;2.20;;
18610;SDS011;9435;52.122;5.502;2022-08-21T10:15:01;9.05;;;2.08;;
18610;SDS011;9435;52.122;5.502;2022-08-21T10:17:36;8.40;;;2.08;;
18610;SDS011;9435;52.122;5.502;2022-08-21T10:20:11;5.53;;;2.10;;
18610;SDS011;9435;52.122;5.502;2022-08-21T10:22:45;7.60;;;1.98;;
18610;SDS011;9435;52.122;5.502;2022-08-21T10:25:25;7.82;;;2.28;;
18610;SDS011;9435;52.122;5.502;2022-08-21T10:27:59;9.43;;;2.33;;
18610;SDS011;9435;52.122;5.502;2022-08-21T10:30:41;12.48;;;2.75;;
18610;SDS011;9435;52.122;5.502;2022-08-21T10:33:26;7.53;;;2.17;;
18610;SDS011;9435;52.122;5.502;2022-08-21T10:36:05;8.80;;;2.33;;
18610;SDS011;9435;52.122;5.502;2022-08-21T10:38:44;8.30;;;2.10;;
18610;SDS011;9435;52.122;5.502;2022-08-21T10:41:23;8.85;;;2.08;;
18610;SDS011;9435;52.122;5.502;2022-08-21T10:44:00;7.03;;;2.05;;
18610;SDS011;9435;52.122;5.502;2022-08-21T10:46:37;7.55;;;2.42;;
18610;SDS011;9435;52.122;5.502;2022-08-21T10:49:15;9.23;;;2.20;;
18610;SDS011;9435;52.122;5.502;2022-08-21T10:51:51;8.65;;;2.13;;
18610;SDS011;9435;52.122;5.502;2022-08-21T10:54:31;8.77;;;2.03;;
18610;SDS011;9435;52.122;5.502;2022-08-21T10:57:07;7.13;;;1.90;;
18610;SDS011;9435;52.122;5.502;2022-08-21T10:59:42;7.00;;;1.80;;
18610;SDS011;9435;52.122;5.502;2022-08-21T11:02:15;5.32;;;1.70;;
18610;SDS011;9435;52.122;5.502;2022-08-21T11:04:49;10.25;;;2.17;;
18610;SDS011;9435;52.122;5.502;2022-08-21T11:07:22;9.73;;;2.20;;
18610;SDS011;9435;52.122;5.502;2022-08-21T11:09:57;7.53;;;1.95;;
18610;SDS011;9435;52.122;5.502;2022-08-21T11:12:31;7.93;;;1.92;;
18610;SDS011;9435;52.122;5.502;2022-08-21T11:15:07;8.50;;;1.80;;
18610;SDS011;9435;52.122;5.502;2022-08-21T11:17:52;7.22;;;2.13;;
18610;SDS011;9435;52.122;5.502;2022-08-21T11:20:28;6.75;;;1.77;;
18610;SDS011;9435;52.122;5.502;2022-08-21T11:23:02;8.13;;;1.95;;
18610;SDS011;9435;52.122;5.502;2022-08-21T11:25:36;6.85;;;1.83;;
18610;SDS011;9435;52.122;5.502;2022-08-21T11:28:08;10.43;;;2.10;;
18610;SDS011;9435;52.122;5.502;2022-08-21T11:30:46;5.32;;;1.73;;
18610;SDS011;9435;52.122;5.502;2022-08-21T11:33:22;6.78;;;1.63;;
18610;SDS011;9435;52.122;5.502;2022-08-21T11:35:58;8.15;;;2.00;;
18610;SDS011;9435;52.122;5.502;2022-08-21T11:38:35;6.80;;;2.05;;
18610;SDS011;9435;52.122;5.502;2022-08-21T11:41:13;6.53;;;1.77;;
18610;SDS011;9435;52.122;5.502;2022-08-21T11:43:47;7.55;;;1.80;;
18610;SDS011;9435;52.122;5.502;2022-08-21T11:46:24;4.95;;;1.38;;
18610;SDS011;9435;52.122;5.502;2022-08-21T11:49:03;7.43;;;1.88;;
18610;SDS011;9435;52.122;5.502;2022-08-21T11:51:42;7.18;;;1.88;;
18610;SDS011;9435;52.122;5.502;2022-08-21T11:54:16;5.90;;;1.70;;
18610;SDS011;9435;52.122;5.502;2022-08-21T11:56:53;6.28;;;1.70;;
18610;SDS011;9435;52.122;5.502;2022-08-21T11:59:26;7.05;;;1.70;;
18610;SDS011;9435;52.122;5.502;2022-08-21T12:01:58;4.78;;;1.45;;
18610;SDS011;9435;52.122;5.502;2022-08-21T12:04:27;8.80;;;1.70;;
18610;SDS011;9435;52.122;5.502;2022-08-21T12:06:56;5.85;;;1.42;;
18610;SDS011;9435;52.122;5.502;2022-08-21T12:09:38;6.40;;;1.65;;
18610;SDS011;9435;52.122;5.502;2022-08-21T12:12:06;7.35;;;1.95;;
18610;SDS011;9435;52.122;5.502;2022-08-21T12:14:38;9.70;;;1.73;;
18610;SDS011;9435;52.122;5.502;2022-08-21T12:17:07;7.75;;;2.00;;
18610;SDS011;9435;52.122;5.502;2022-08-21T12:19:42;8.68;;;1.95;;
18610;SDS011;9435;52.122;5.502;2022-08-21T12:22:11;5.70;;;1.70;;
18610;SDS011;9435;52.122;5.502;2022-08-21T12:24:41;5.15;;;1.80;;
18610;SDS011;9435;52.122;5.502;2022-08-21T12:30:19;7.88;;;2.30;;
18610;SDS011;9435;52.122;5.502;2022-08-21T12:32:54;7.15;;;2.33;;
18610;SDS011;9435;52.122;5.502;2022-08-21T12:35:24;11.60;;;2.58;;
18610;SDS011;9435;52.122;5.502;2022-08-21T12:37:56;8.82;;;2.38;;
18610;SDS011;9435;52.122;5.502;2022-08-21T12:40:29;8.02;;;2.30;;
18610;SDS011;9435;52.122;5.502;2022-08-21T12:43:00;8.38;;;2.45;;
18610;SDS011;9435;52.122;5.502;2022-08-21T12:45:30;6.47;;;2.13;;
18610;SDS011;9435;52.122;5.502;2022-08-21T12:47:59;5.88;;;2.03;;
18610;SDS011;9435;52.122;5.502;2022-08-21T12:50:35;8.77;;;2.35;;
18610;SDS011;9435;52.122;5.502;2022-08-21T12:53:04;7.68;;;2.20;;
18610;SDS011;9435;52.122;5.502;2022-08-21T12:55:35;7.28;;;2.35;;
18610;SDS011;9435;52.122;5.502;2022-08-21T12:58:16;13.00;;;2.13;;
18610;SDS011;9435;52.122;5.502;2022-08-21T13:00:47;6.57;;;1.90;;
18610;SDS011;9435;52.122;5.502;2022-08-21T13:03:16;7.00;;;1.98;;
18610;SDS011;9435;52.122;5.502;2022-08-21T13:05:43;7.03;;;2.10;;
18610;SDS011;9435;52.122;5.502;2022-08-21T13:08:11;8.50;;;1.90;;
18610;SDS011;9435;52.122;5.502;2022-08-21T13:10:41;6.97;;;1.80;;
18610;SDS011;9435;52.122;5.502;2022-08-21T13:13:19;7.38;;;1.90;;
18610;SDS011;9435;52.122;5.502;2022-08-21T13:15:48;5.95;;;1.70;;
18610;SDS011;9435;52.122;5.502;2022-08-21T13:18:21;5.30;;;1.45;;
18610;SDS011;9435;52.122;5.502;2022-08-21T13:20:50;6.25;;;1.75;;
18610;SDS011;9435;52.122;5.502;2022-08-21T13:23:20;9.30;;;1.80;;
18610;SDS011;9435;52.122;5.502;2022-08-21T13:25:51;7.38;;;1.80;;
18610;SDS011;9435;52.122;5.502;2022-08-21T13:28:18;5.80;;;1.70;;
18610;SDS011;9435;52.122;5.502;2022-08-21T13:30:46;6.88;;;1.60;;
18610;SDS011;9435;52.122;5.502;2022-08-21T13:33:16;6.22;;;1.80;;
18610;SDS011;9435;52.122;5.502;2022-08-21T13:35:46;7.75;;;1.70;;
18610;SDS011;9435;52.122;5.502;2022-08-21T13:38:16;4.47;;;1.40;;
18610;SDS011;9435;52.122;5.502;2022-08-21T13:40:46;6.28;;;1.70;;
18610;SDS011;9435;52.122;5.502;2022-08-21T13:43:19;6.65;;;2.00;;
18610;SDS011;9435;52.122;5.502;2022-08-21T13:45:51;8.60;;;2.03;;
18610;SDS011;9435;52.122;5.502;2022-08-21T13:48:18;6.95;;;2.17;;
18610;SDS011;9435;52.122;5.502;2022-08-21T13:50:46;6.03;;;1.95;;
18610;SDS011;9435;52.122;5.502;2022-08-21T13:53:21;5.68;;;2.17;;
18610;SDS011;9435;52.122;5.502;2022-08-21T13:55:49;10.00;;;2.53;;
18610;SDS011;9435;52.122;5.502;2022-08-21T13:58:25;9.45;;;2.17;;
18610;SDS011;9435;52.122;5.502;2022-08-21T14:00:53;6.32;;;2.00;;
18610;SDS011;9435;52.122;5.502;2022-08-21T14:03:27;8.10;;;2.03;;
18610;SDS011;9435;52.122;5.502;2022-08-21T14:05:58;5.80;;;1.70;;
18610;SDS011;9435;52.122;5.502;2022-08-21T14:08:26;9.00;;;2.20;;
18610;SDS011;9435;52.122;5.502;2022-08-21T14:10:57;6.97;;;2.00;;
18610;SDS011;9435;52.122;5.502;2022-08-21T14:13:38;5.68;;;2.00;;
18610;SDS011;9435;52.122;5.502;2022-08-21T14:16:11;5.82;;;2.13;;
18610;SDS011;9435;52.122;5.502;2022-08-21T14:18:48;4.15;;;1.67;;
18610;SDS011;9435;52.122;5.502;2022-08-21T14:21:27;5.95;;;1.90;;
18610;SDS011;9435;52.122;5.502;2022-08-21T14:24:04;6.45;;;1.83;;
18610;SDS011;9435;52.122;5.502;2022-08-21T14:26:35;5.72;;;2.00;;
18610;SDS011;9435;52.122;5.502;2022-08-21T14:29:11;7.63;;;1.95;;
18610;SDS011;9435;52.122;5.502;2022-08-21T14:31:40;7.18;;;1.88;;
18610;SDS011;9435;52.122;5.502;2022-08-21T14:34:10;5.75;;;1.90;;
18610;SDS011;9435;52.122;5.502;2022-08-21T14:36:38;7.32;;;2.33;;
18610;SDS011;9435;52.122;5.502;2022-08-21T14:39:05;6.45;;;2.05;;
18610;SDS011;9435;52.122;5.502;2022-08-21T14:41:32;8.48;;;2.25;;
18610;SDS011;9435;52.122;5.502;2022-08-21T14:44:02;9.25;;;2.15;;
18610;SDS011;9435;52.122;5.502;2022-08-21T14:46:35;8.88;;;2.17;;
18610;SDS011;9435;52.122;5.502;2022-08-21T14:49:03;8.55;;;2.30;;
18610;SDS011;9435;52.122;5.502;2022-08-21T14:51:35;6.18;;;2.20;;
18610;SDS011;9435;52.122;5.502;2022-08-21T14:54:04;7.03;;;1.90;;
18610;SDS011;9435;52.122;5.502;2022-08-21T14:56:34;4.93;;;2.03;;
18610;SDS011;9435;52.122;5.502;2022-08-21T14:59:06;5.68;;;1.90;;
18610;SDS011;9435;52.122;5.502;2022-08-21T15:01:39;7.88;;;2.05;;
18610;SDS011;9435;52.122;5.502;2022-08-21T15:04:10;6.95;;;1.88;;
18610;SDS011;9435;52.122;5.502;2022-08-21T15:06:39;7.47;;;2.30;;
18610;SDS011;9435;52.122;5.502;2022-08-21T15:09:06;7.82;;;2.10;;
18610;SDS011;9435;52.122;5.502;2022-08-21T15:11:33;10.07;;;2.20;;
18610;SDS011;9435;52.122;5.502;2022-08-21T15:14:01;6.47;;;2.00;;
18610;SDS011;9435;52.122;5.502;2022-08-21T15:16:31;7.88;;;2.22;;